sensor_id;sensor_type;location;lat;lon;timestamp;temperature;humidity
21306;DHT22;10812;51.838;5.838;2023-03-03T00:01:51;1.40;99.90
21306;DHT22;10812;51.838;5.838;2023-03-03T00:04:19;1.30;99.90
21306;DHT22;10812;51.838;5.838;2023-03-03T00:06:48;1.30;99.90
21306;DHT22;10812;51.838;5.838;2023-03-03T00:09:16;1.20;99.90
21306;DHT22;10812;51.838;5.838;2023-03-03T00:11:51;1.20;99.90
21306;DHT22;10812;51.838;5.838;2023-03-03T00:14:27;1.10;99.90
21306;DHT22;10812;51.838;5.838;2023-03-03T00:16:56;1.10;99.90
21306;DHT22;10812;51.838;5.838;2023-03-03T00:19:28;1.10;99.90
21306;DHT22;10812;51.838;5.838;2023-03-03T00:22:13;1.10;99.90
21306;DHT22;10812;51.838;5.838;2023-03-03T00:24:43;1.10;99.90
21306;DHT22;10812;51.838;5.838;2023-03-03T00:27:17;1.20;99.90
21306;DHT22;10812;51.838;5.838;2023-03-03T00:29:52;1.20;99.90
21306;DHT22;10812;51.838;5.838;2023-03-03T00:32:24;1.20;99.90
21306;DHT22;10812;51.838;5.838;2023-03-03T00:35:00;1.10;99.90
21306;DHT22;10812;51.838;5.838;2023-03-03T00:37:31;1.00;99.90
21306;DHT22;10812;51.838;5.838;2023-03-03T00:40:13;1.00;99.90
21306;DHT22;10812;51.838;5.838;2023-03-03T00:42:48;0.90;99.90
21306;DHT22;10812;51.838;5.838;2023-03-03T00:45:25;0.90;99.90
21306;DHT22;10812;51.838;5.838;2023-03-03T00:47:54;0.90;99.90
21306;DHT22;10812;51.838;5.838;2023-03-03T00:50:27;0.80;99.90
21306;DHT22;10812;51.838;5.838;2023-03-03T00:53:00;0.80;99.90
21306;DHT22;10812;51.838;5.838;2023-03-03T00:55:30;0.80;99.90
21306;DHT22;10812;51.838;5.838;2023-03-03T00:57:59;0.90;99.90
21306;DHT22;10812;51.838;5.838;2023-03-03T01:00:29;0.90;99.90
21306;DHT22;10812;51.838;5.838;2023-03-03T01:03:03;0.90;99.90
21306;DHT22;10812;51.838;5.838;2023-03-03T01:05:32;0.90;99.90
21306;DHT22;10812;51.838;5.838;2023-03-03T01:08:01;0.90;99.90
21306;DHT22;10812;51.838;5.838;2023-03-03T01:10:32;0.90;99.90
21306;DHT22;10812;51.838;5.838;2023-03-03T01:13:01;1.00;99.90
21306;DHT22;10812;51.838;5.838;2023-03-03T01:15:31;1.00;99.90
21306;DHT22;10812;51.838;5.838;2023-03-03T01:18:03;1.10;99.90
21306;DHT22;10812;51.838;5.838;2023-03-03T01:20:31;1.10;99.90
21306;DHT22;10812;51.838;5.838;2023-03-03T01:22:59;1.10;99.90
21306;DHT22;10812;51.838;5.838;2023-03-03T01:25:27;1.00;99.90
21306;DHT22;10812;51.838;5.838;2023-03-03T01:27:56;1.00;99.90
21306;DHT22;10812;51.838;5.838;2023-03-03T01:30:25;1.00;99.90
21306;DHT22;10812;51.838;5.838;2023-03-03T01:32:54;1.00;99.90
21306;DHT22;10812;51.838;5.838;2023-03-03T01:35:23;1.10;99.90
21306;DHT22;10812;51.838;5.838;2023-03-03T01:37:51;1.10;99.90
21306;DHT22;10812;51.838;5.838;2023-03-03T01:40:22;1.10;99.90
21306;DHT22;10812;51.838;5.838;2023-03-03T01:46:53;1.10;99.90
21306;DHT22;10812;51.838;5.838;2023-03-03T01:49:26;1.10;99.90
21306;DHT22;10812;51.838;5.838;2023-03-03T01:51:58;1.10;99.90
21306;DHT22;10812;51.838;5.838;2023-03-03T01:54:29;1.00;99.90
21306;DHT22;10812;51.838;5.838;2023-03-03T01:57:00;1.00;99.90
21306;DHT22;10812;51.838;5.838;2023-03-03T01:59:32;0.90;99.90
21306;DHT22;10812;51.838;5.838;2023-03-03T02:02:01;0.90;99.90
21306;DHT22;10812;51.838;5.838;2023-03-03T02:04:31;0.80;99.90
21306;DHT22;10812;51.838;5.838;2023-03-03T02:07:04;0.80;99.90
21306;DHT22;10812;51.838;5.838;2023-03-03T02:09:41;0.80;99.90
21306;DHT22;10812;51.838;5.838;2023-03-03T02:12:12;0.80;99.90
21306;DHT22;10812;51.838;5.838;2023-03-03T02:14:41;0.80;99.90
21306;DHT22;10812;51.838;5.838;2023-03-03T02:17:09;0.80;99.90
21306;DHT22;10812;51.838;5.838;2023-03-03T02:19:45;0.70;99.90
21306;DHT22;10812;51.838;5.838;2023-03-03T02:22:17;0.70;99.90
21306;DHT22;10812;51.838;5.838;2023-03-03T02:24:50;0.70;99.90
21306;DHT22;10812;51.838;5.838;2023-03-03T02:27:21;0.70;99.90
21306;DHT22;10812;51.838;5.838;2023-03-03T02:29:49;0.80;99.90
21306;DHT22;10812;51.838;5.838;2023-03-03T02:32:18;0.80;99.90
21306;DHT22;10812;51.838;5.838;2023-03-03T02:34:49;0.80;99.90
21306;DHT22;10812;51.838;5.838;2023-03-03T02:37:18;0.90;99.90
21306;DHT22;10812;51.838;5.838;2023-03-03T02:39:47;0.90;99.90
21306;DHT22;10812;51.838;5.838;2023-03-03T02:42:19;0.90;99.90
21306;DHT22;10812;51.838;5.838;2023-03-03T02:44:50;0.90;99.90
21306;DHT22;10812;51.838;5.838;2023-03-03T02:47:18;0.90;99.90
21306;DHT22;10812;51.838;5.838;2023-03-03T02:49:46;0.90;99.90
21306;DHT22;10812;51.838;5.838;2023-03-03T02:52:14;0.90;99.90
21306;DHT22;10812;51.838;5.838;2023-03-03T02:54:44;0.90;99.90
21306;DHT22;10812;51.838;5.838;2023-03-03T02:57:13;0.90;99.90
21306;DHT22;10812;51.838;5.838;2023-03-03T03:08:21;1.00;99.90
21306;DHT22;10812;51.838;5.838;2023-03-03T03:10:49;1.10;99.90
21306;DHT22;10812;51.838;5.838;2023-03-03T03:13:17;1.10;99.90
21306;DHT22;10812;51.838;5.838;2023-03-03T03:15:46;1.10;99.90
21306;DHT22;10812;51.838;5.838;2023-03-03T03:18:14;1.10;99.90
21306;DHT22;10812;51.838;5.838;2023-03-03T03:20:43;1.20;99.90
21306;DHT22;10812;51.838;5.838;2023-03-03T03:23:15;1.20;99.90
21306;DHT22;10812;51.838;5.838;2023-03-03T03:25:45;1.20;99.90
21306;DHT22;10812;51.838;5.838;2023-03-03T03:28:14;1.30;99.90
21306;DHT22;10812;51.838;5.838;2023-03-03T03:30:43;1.30;99.90
21306;DHT22;10812;51.838;5.838;2023-03-03T03:33:12;1.30;99.90
21306;DHT22;10812;51.838;5.838;2023-03-03T03:35:40;1.30;99.90
21306;DHT22;10812;51.838;5.838;2023-03-03T03:38:12;1.30;99.90
21306;DHT22;10812;51.838;5.838;2023-03-03T03:40:41;1.30;99.90
21306;DHT22;10812;51.838;5.838;2023-03-03T03:43:10;1.30;99.90
21306;DHT22;10812;51.838;5.838;2023-03-03T03:45:41;1.30;99.90
21306;DHT22;10812;51.838;5.838;2023-03-03T03:48:09;1.30;99.90
21306;DHT22;10812;51.838;5.838;2023-03-03T03:50:37;1.40;99.90
21306;DHT22;10812;51.838;5.838;2023-03-03T03:53:06;1.40;99.90
21306;DHT22;10812;51.838;5.838;2023-03-03T03:55:34;1.40;99.90
21306;DHT22;10812;51.838;5.838;2023-03-03T03:58:02;1.40;99.90
21306;DHT22;10812;51.838;5.838;2023-03-03T04:00:32;1.50;99.90
21306;DHT22;10812;51.838;5.838;2023-03-03T04:03:00;1.50;99.90
21306;DHT22;10812;51.838;5.838;2023-03-03T04:05:28;1.50;99.90
21306;DHT22;10812;51.838;5.838;2023-03-03T04:07:56;1.60;99.90
21306;DHT22;10812;51.838;5.838;2023-03-03T04:10:24;1.50;99.90
21306;DHT22;10812;51.838;5.838;2023-03-03T04:12:52;1.60;99.90
21306;DHT22;10812;51.838;5.838;2023-03-03T04:15:21;1.50;99.90
21306;DHT22;10812;51.838;5.838;2023-03-03T04:17:50;1.50;99.90
21306;DHT22;10812;51.838;5.838;2023-03-03T04:20:18;1.50;99.90
21306;DHT22;10812;51.838;5.838;2023-03-03T04:22:46;1.50;99.90
21306;DHT22;10812;51.838;5.838;2023-03-03T04:25:15;1.50;99.90
21306;DHT22;10812;51.838;5.838;2023-03-03T04:27:44;1.50;99.90
21306;DHT22;10812;51.838;5.838;2023-03-03T04:30:13;1.60;99.90
21306;DHT22;10812;51.838;5.838;2023-03-03T04:32:41;1.60;99.90
21306;DHT22;10812;51.838;5.838;2023-03-03T04:35:11;1.50;99.90
21306;DHT22;10812;51.838;5.838;2023-03-03T04:37:39;1.60;99.90
21306;DHT22;10812;51.838;5.838;2023-03-03T04:40:08;1.60;99.90
21306;DHT22;10812;51.838;5.838;2023-03-03T04:42:37;1.60;99.90
21306;DHT22;10812;51.838;5.838;2023-03-03T04:45:06;1.60;99.90
21306;DHT22;10812;51.838;5.838;2023-03-03T04:47:34;1.60;99.90
21306;DHT22;10812;51.838;5.838;2023-03-03T04:50:03;1.60;99.90
21306;DHT22;10812;51.838;5.838;2023-03-03T04:52:32;1.60;99.90
21306;DHT22;10812;51.838;5.838;2023-03-03T04:55:01;1.60;99.90
21306;DHT22;10812;51.838;5.838;2023-03-03T04:57:29;1.60;99.90
21306;DHT22;10812;51.838;5.838;2023-03-03T04:59:57;1.70;99.90
21306;DHT22;10812;51.838;5.838;2023-03-03T05:02:25;1.60;99.90
21306;DHT22;10812;51.838;5.838;2023-03-03T05:04:53;1.60;99.90
21306;DHT22;10812;51.838;5.838;2023-03-03T05:07:22;1.60;99.90
21306;DHT22;10812;51.838;5.838;2023-03-03T05:09:51;1.60;99.90
21306;DHT22;10812;51.838;5.838;2023-03-03T05:12:19;1.70;99.90
21306;DHT22;10812;51.838;5.838;2023-03-03T05:14:47;1.60;99.90
21306;DHT22;10812;51.838;5.838;2023-03-03T05:17:16;1.60;99.90
21306;DHT22;10812;51.838;5.838;2023-03-03T05:19:44;1.70;99.90
21306;DHT22;10812;51.838;5.838;2023-03-03T05:22:12;1.70;99.90
21306;DHT22;10812;51.838;5.838;2023-03-03T05:24:40;1.70;99.90
21306;DHT22;10812;51.838;5.838;2023-03-03T05:27:11;1.60;99.90
21306;DHT22;10812;51.838;5.838;2023-03-03T05:29:39;1.70;99.90
21306;DHT22;10812;51.838;5.838;2023-03-03T05:32:07;1.70;99.90
21306;DHT22;10812;51.838;5.838;2023-03-03T05:45:58;1.70;99.90
21306;DHT22;10812;51.838;5.838;2023-03-03T05:48:27;1.70;99.90
21306;DHT22;10812;51.838;5.838;2023-03-03T05:50:57;1.70;99.90
21306;DHT22;10812;51.838;5.838;2023-03-03T05:53:26;1.70;99.90
21306;DHT22;10812;51.838;5.838;2023-03-03T05:55:54;1.70;99.90
21306;DHT22;10812;51.838;5.838;2023-03-03T05:58:22;1.70;99.90
21306;DHT22;10812;51.838;5.838;2023-03-03T06:00:50;1.60;99.90
21306;DHT22;10812;51.838;5.838;2023-03-03T06:03:19;1.70;99.90
21306;DHT22;10812;51.838;5.838;2023-03-03T06:05:48;1.70;99.90
21306;DHT22;10812;51.838;5.838;2023-03-03T06:08:16;1.60;99.90
21306;DHT22;10812;51.838;5.838;2023-03-03T06:10:44;1.70;99.90
21306;DHT22;10812;51.838;5.838;2023-03-03T06:13:12;1.70;99.90
21306;DHT22;10812;51.838;5.838;2023-03-03T06:15:40;1.60;99.90
21306;DHT22;10812;51.838;5.838;2023-03-03T06:18:08;1.60;99.90
21306;DHT22;10812;51.838;5.838;2023-03-03T06:20:38;1.70;99.90
21306;DHT22;10812;51.838;5.838;2023-03-03T06:23:06;1.70;99.90
21306;DHT22;10812;51.838;5.838;2023-03-03T06:25:34;1.70;99.90
21306;DHT22;10812;51.838;5.838;2023-03-03T06:28:03;1.70;99.90
21306;DHT22;10812;51.838;5.838;2023-03-03T06:30:31;1.70;99.90
21306;DHT22;10812;51.838;5.838;2023-03-03T06:32:59;1.70;99.90
21306;DHT22;10812;51.838;5.838;2023-03-03T06:35:27;1.70;99.90
21306;DHT22;10812;51.838;5.838;2023-03-03T06:37:56;1.70;99.90
21306;DHT22;10812;51.838;5.838;2023-03-03T06:40:24;1.70;99.90
21306;DHT22;10812;51.838;5.838;2023-03-03T06:42:53;1.70;99.90
21306;DHT22;10812;51.838;5.838;2023-03-03T06:45:21;1.80;99.90
21306;DHT22;10812;51.838;5.838;2023-03-03T06:47:49;1.80;99.90
21306;DHT22;10812;51.838;5.838;2023-03-03T06:50:19;1.80;99.90
21306;DHT22;10812;51.838;5.838;2023-03-03T06:52:47;1.70;99.90
21306;DHT22;10812;51.838;5.838;2023-03-03T06:55:21;1.70;99.90
21306;DHT22;10812;51.838;5.838;2023-03-03T06:57:49;1.70;99.90
21306;DHT22;10812;51.838;5.838;2023-03-03T07:00:23;1.60;99.90
21306;DHT22;10812;51.838;5.838;2023-03-03T07:02:57;1.60;99.90
21306;DHT22;10812;51.838;5.838;2023-03-03T07:05:27;1.70;99.90
21306;DHT22;10812;51.838;5.838;2023-03-03T07:07:55;1.70;99.90
21306;DHT22;10812;51.838;5.838;2023-03-03T07:10:26;1.60;99.90
21306;DHT22;10812;51.838;5.838;2023-03-03T07:13:00;1.60;99.90
21306;DHT22;10812;51.838;5.838;2023-03-03T07:15:33;1.60;99.90
21306;DHT22;10812;51.838;5.838;2023-03-03T07:18:02;1.60;99.90
21306;DHT22;10812;51.838;5.838;2023-03-03T07:20:38;1.60;99.90
21306;DHT22;10812;51.838;5.838;2023-03-03T07:23:17;1.70;99.90
21306;DHT22;10812;51.838;5.838;2023-03-03T07:25:47;1.70;99.90
21306;DHT22;10812;51.838;5.838;2023-03-03T07:28:21;1.70;99.90
21306;DHT22;10812;51.838;5.838;2023-03-03T07:30:49;1.70;99.90
21306;DHT22;10812;51.838;5.838;2023-03-03T07:33:23;1.70;99.90
21306;DHT22;10812;51.838;5.838;2023-03-03T07:35:53;1.70;99.90
21306;DHT22;10812;51.838;5.838;2023-03-03T07:38:30;1.80;99.90
21306;DHT22;10812;51.838;5.838;2023-03-03T07:41:04;1.80;99.90
21306;DHT22;10812;51.838;5.838;2023-03-03T07:43:36;1.80;99.90
21306;DHT22;10812;51.838;5.838;2023-03-03T07:46:20;1.80;99.90
21306;DHT22;10812;51.838;5.838;2023-03-03T07:48:50;1.80;99.90
21306;DHT22;10812;51.838;5.838;2023-03-03T07:51:21;1.90;99.90
21306;DHT22;10812;51.838;5.838;2023-03-03T07:53:52;1.90;99.90
21306;DHT22;10812;51.838;5.838;2023-03-03T07:56:34;2.00;99.90
21306;DHT22;10812;51.838;5.838;2023-03-03T07:59:10;2.00;99.90
21306;DHT22;10812;51.838;5.838;2023-03-03T08:01:43;2.00;99.90
21306;DHT22;10812;51.838;5.838;2023-03-03T08:04:18;2.10;99.90
21306;DHT22;10812;51.838;5.838;2023-03-03T08:06:50;2.10;99.90
21306;DHT22;10812;51.838;5.838;2023-03-03T08:09:41;2.20;99.90
21306;DHT22;10812;51.838;5.838;2023-03-03T08:15:25;2.40;99.90
21306;DHT22;10812;51.838;5.838;2023-03-03T08:17:54;2.30;99.90
21306;DHT22;10812;51.838;5.838;2023-03-03T08:20:45;2.30;99.90
21306;DHT22;10812;51.838;5.838;2023-03-03T08:23:15;2.30;99.90
21306;DHT22;10812;51.838;5.838;2023-03-03T08:25:44;2.40;99.90
21306;DHT22;10812;51.838;5.838;2023-03-03T08:28:12;2.50;99.90
21306;DHT22;10812;51.838;5.838;2023-03-03T08:30:44;2.50;99.90
21306;DHT22;10812;51.838;5.838;2023-03-03T08:33:13;2.60;99.90
21306;DHT22;10812;51.838;5.838;2023-03-03T08:35:41;2.50;99.90
21306;DHT22;10812;51.838;5.838;2023-03-03T08:38:10;2.50;99.90
21306;DHT22;10812;51.838;5.838;2023-03-03T08:40:38;2.40;99.90
21306;DHT22;10812;51.838;5.838;2023-03-03T08:43:06;2.50;99.90
21306;DHT22;10812;51.838;5.838;2023-03-03T08:45:35;2.50;99.90
21306;DHT22;10812;51.838;5.838;2023-03-03T08:48:05;2.50;99.90
21306;DHT22;10812;51.838;5.838;2023-03-03T08:50:33;2.50;99.90
21306;DHT22;10812;51.838;5.838;2023-03-03T08:53:01;2.60;99.90
21306;DHT22;10812;51.838;5.838;2023-03-03T08:55:29;2.80;99.90
21306;DHT22;10812;51.838;5.838;2023-03-03T08:57:58;2.80;99.90
21306;DHT22;10812;51.838;5.838;2023-03-03T09:00:26;2.80;99.90
21306;DHT22;10812;51.838;5.838;2023-03-03T09:02:54;2.80;99.90
21306;DHT22;10812;51.838;5.838;2023-03-03T09:05:24;2.90;99.90
21306;DHT22;10812;51.838;5.838;2023-03-03T09:07:53;2.80;99.90
21306;DHT22;10812;51.838;5.838;2023-03-03T09:10:23;2.80;99.90
21306;DHT22;10812;51.838;5.838;2023-03-03T09:12:55;2.70;99.90
21306;DHT22;10812;51.838;5.838;2023-03-03T09:15:27;2.80;99.90
21306;DHT22;10812;51.838;5.838;2023-03-03T09:17:57;2.70;99.90
21306;DHT22;10812;51.838;5.838;2023-03-03T09:20:39;2.70;99.90
21306;DHT22;10812;51.838;5.838;2023-03-03T09:23:30;2.80;99.90
21306;DHT22;10812;51.838;5.838;2023-03-03T09:26:23;2.90;99.90
21306;DHT22;10812;51.838;5.838;2023-03-03T09:28:55;2.90;99.90
21306;DHT22;10812;51.838;5.838;2023-03-03T09:31:34;3.00;99.90
21306;DHT22;10812;51.838;5.838;2023-03-03T09:34:13;3.10;99.90
21306;DHT22;10812;51.838;5.838;2023-03-03T09:36:44;3.00;99.90
21306;DHT22;10812;51.838;5.838;2023-03-03T09:39:16;3.00;99.90
21306;DHT22;10812;51.838;5.838;2023-03-03T09:42:12;3.10;99.90
21306;DHT22;10812;51.838;5.838;2023-03-03T09:45:09;3.20;99.90
21306;DHT22;10812;51.838;5.838;2023-03-03T09:47:59;3.50;99.90
21306;DHT22;10812;51.838;5.838;2023-03-03T09:50:34;3.60;99.90
21306;DHT22;10812;51.838;5.838;2023-03-03T09:53:15;3.60;99.90
21306;DHT22;10812;51.838;5.838;2023-03-03T09:55:50;3.70;99.90
21306;DHT22;10812;51.838;5.838;2023-03-03T09:58:35;3.70;99.90
21306;DHT22;10812;51.838;5.838;2023-03-03T10:01:38;3.80;99.90
21306;DHT22;10812;51.838;5.838;2023-03-03T10:04:18;3.80;99.90
21306;DHT22;10812;51.838;5.838;2023-03-03T10:06:58;3.90;99.90
21306;DHT22;10812;51.838;5.838;2023-03-03T10:09:45;4.00;99.90
21306;DHT22;10812;51.838;5.838;2023-03-03T10:12:18;4.10;99.90
21306;DHT22;10812;51.838;5.838;2023-03-03T10:14:58;4.20;99.90
21306;DHT22;10812;51.838;5.838;2023-03-03T10:17:40;4.30;99.90
21306;DHT22;10812;51.838;5.838;2023-03-03T10:20:29;4.50;99.90
21306;DHT22;10812;51.838;5.838;2023-03-03T10:23:20;4.80;99.90
21306;DHT22;10812;51.838;5.838;2023-03-03T10:25:54;4.70;99.90
21306;DHT22;10812;51.838;5.838;2023-03-03T10:28:56;5.00;99.90
21306;DHT22;10812;51.838;5.838;2023-03-03T10:31:41;5.70;99.90
21306;DHT22;10812;51.838;5.838;2023-03-03T10:34:20;5.70;99.90
21306;DHT22;10812;51.838;5.838;2023-03-03T10:36:54;5.80;99.90
21306;DHT22;10812;51.838;5.838;2023-03-03T10:39:41;5.80;99.90
21306;DHT22;10812;51.838;5.838;2023-03-03T10:42:29;5.80;99.90
21306;DHT22;10812;51.838;5.838;2023-03-03T10:48:10;5.90;99.90
21306;DHT22;10812;51.838;5.838;2023-03-03T10:50:50;6.00;99.90
21306;DHT22;10812;51.838;5.838;2023-03-03T10:53:24;5.60;99.90
21306;DHT22;10812;51.838;5.838;2023-03-03T10:56:07;5.50;99.90
21306;DHT22;10812;51.838;5.838;2023-03-03T10:58:45;5.60;99.90
21306;DHT22;10812;51.838;5.838;2023-03-03T11:01:22;5.60;99.90
21306;DHT22;10812;51.838;5.838;2023-03-03T11:04:08;5.50;99.90
21306;DHT22;10812;51.838;5.838;2023-03-03T11:06:44;5.60;99.90
21306;DHT22;10812;51.838;5.838;2023-03-03T11:09:31;5.60;99.90
21306;DHT22;10812;51.838;5.838;2023-03-03T11:12:13;5.60;99.90
21306;DHT22;10812;51.838;5.838;2023-03-03T11:14:56;5.70;99.90
21306;DHT22;10812;51.838;5.838;2023-03-03T11:17:42;5.70;99.90
21306;DHT22;10812;51.838;5.838;2023-03-03T11:20:29;5.80;99.90
21306;DHT22;10812;51.838;5.838;2023-03-03T11:23:07;5.80;99.90
21306;DHT22;10812;51.838;5.838;2023-03-03T11:25:43;5.60;99.90
21306;DHT22;10812;51.838;5.838;2023-03-03T11:28:25;5.30;99.90
21306;DHT22;10812;51.838;5.838;2023-03-03T11:31:04;5.30;99.90
21306;DHT22;10812;51.838;5.838;2023-03-03T11:33:40;5.30;99.90
21306;DHT22;10812;51.838;5.838;2023-03-03T11:36:14;5.50;99.90
21306;DHT22;10812;51.838;5.838;2023-03-03T11:38:50;5.30;99.90
21306;DHT22;10812;51.838;5.838;2023-03-03T11:41:31;5.50;99.90
21306;DHT22;10812;51.838;5.838;2023-03-03T11:44:19;5.50;99.90
21306;DHT22;10812;51.838;5.838;2023-03-03T11:46:53;5.50;99.90
21306;DHT22;10812;51.838;5.838;2023-03-03T11:49:27;5.60;99.90
21306;DHT22;10812;51.838;5.838;2023-03-03T11:52:05;5.70;99.90
21306;DHT22;10812;51.838;5.838;2023-03-03T11:54:44;5.60;99.90
21306;DHT22;10812;51.838;5.838;2023-03-03T11:57:19;5.60;99.90
21306;DHT22;10812;51.838;5.838;2023-03-03T11:59:55;5.80;99.90
21306;DHT22;10812;51.838;5.838;2023-03-03T12:02:56;5.90;99.90
21306;DHT22;10812;51.838;5.838;2023-03-03T12:05:52;6.00;99.90
21306;DHT22;10812;51.838;5.838;2023-03-03T12:11:26;6.10;99.90
21306;DHT22;10812;51.838;5.838;2023-03-03T12:13:57;6.20;99.90
21306;DHT22;10812;51.838;5.838;2023-03-03T12:16:38;6.10;99.90
21306;DHT22;10812;51.838;5.838;2023-03-03T12:19:17;6.40;99.90
21306;DHT22;10812;51.838;5.838;2023-03-03T12:22:07;6.50;99.90
21306;DHT22;10812;51.838;5.838;2023-03-03T12:27:49;6.40;99.90
21306;DHT22;10812;51.838;5.838;2023-03-03T12:30:25;6.30;99.90
21306;DHT22;10812;51.838;5.838;2023-03-03T12:33:09;6.50;99.90
21306;DHT22;10812;51.838;5.838;2023-03-03T12:35:43;6.60;99.90
21306;DHT22;10812;51.838;5.838;2023-03-03T12:38:25;6.50;99.90
21306;DHT22;10812;51.838;5.838;2023-03-03T12:41:02;6.50;99.90
21306;DHT22;10812;51.838;5.838;2023-03-03T12:43:53;6.70;99.90
21306;DHT22;10812;51.838;5.838;2023-03-03T12:46:27;6.80;99.90
21306;DHT22;10812;51.838;5.838;2023-03-03T12:48:58;6.70;99.90
21306;DHT22;10812;51.838;5.838;2023-03-03T12:51:36;6.70;99.90
21306;DHT22;10812;51.838;5.838;2023-03-03T12:54:27;6.70;99.90
21306;DHT22;10812;51.838;5.838;2023-03-03T12:57:12;6.80;99.90
21306;DHT22;10812;51.838;5.838;2023-03-03T12:59:50;7.10;99.90
21306;DHT22;10812;51.838;5.838;2023-03-03T13:02:44;7.10;99.90
21306;DHT22;10812;51.838;5.838;2023-03-03T13:05:23;6.90;99.90
21306;DHT22;10812;51.838;5.838;2023-03-03T13:08:39;7.00;99.90
21306;DHT22;10812;51.838;5.838;2023-03-03T13:11:35;7.00;99.90
21306;DHT22;10812;51.838;5.838;2023-03-03T13:14:15;7.10;99.90
21306;DHT22;10812;51.838;5.838;2023-03-03T13:16:53;7.10;99.90
21306;DHT22;10812;51.838;5.838;2023-03-03T13:19:26;7.30;99.90
21306;DHT22;10812;51.838;5.838;2023-03-03T13:21:58;7.30;99.90
21306;DHT22;10812;51.838;5.838;2023-03-03T13:24:34;7.50;99.90
21306;DHT22;10812;51.838;5.838;2023-03-03T13:27:06;7.60;99.90
21306;DHT22;10812;51.838;5.838;2023-03-03T13:29:38;7.40;99.90
21306;DHT22;10812;51.838;5.838;2023-03-03T13:32:11;7.40;99.90
21306;DHT22;10812;51.838;5.838;2023-03-03T13:34:48;7.30;99.90
21306;DHT22;10812;51.838;5.838;2023-03-03T13:37:20;7.20;99.90
21306;DHT22;10812;51.838;5.838;2023-03-03T13:39:56;7.50;99.90
21306;DHT22;10812;51.838;5.838;2023-03-03T13:42:32;7.70;99.90
21306;DHT22;10812;51.838;5.838;2023-03-03T13:45:14;7.70;99.90
21306;DHT22;10812;51.838;5.838;2023-03-03T13:47:47;7.60;99.90
21306;DHT22;10812;51.838;5.838;2023-03-03T13:50:22;7.60;99.90
21306;DHT22;10812;51.838;5.838;2023-03-03T13:55:52;7.80;99.90
21306;DHT22;10812;51.838;5.838;2023-03-03T13:58:30;7.70;99.90
21306;DHT22;10812;51.838;5.838;2023-03-03T14:01:07;7.70;99.90
21306;DHT22;10812;51.838;5.838;2023-03-03T14:03:47;7.90;99.90
21306;DHT22;10812;51.838;5.838;2023-03-03T14:06:17;8.30;99.90
21306;DHT22;10812;51.838;5.838;2023-03-03T14:11:44;8.20;99.90
21306;DHT22;10812;51.838;5.838;2023-03-03T14:14:27;8.10;99.90
21306;DHT22;10812;51.838;5.838;2023-03-03T14:17:02;8.00;99.90
21306;DHT22;10812;51.838;5.838;2023-03-03T14:19:34;8.10;99.90
21306;DHT22;10812;51.838;5.838;2023-03-03T14:22:15;8.20;99.90
21306;DHT22;10812;51.838;5.838;2023-03-03T14:24:59;8.10;99.90
21306;DHT22;10812;51.838;5.838;2023-03-03T14:27:36;8.20;99.90
21306;DHT22;10812;51.838;5.838;2023-03-03T14:30:26;8.10;99.90
21306;DHT22;10812;51.838;5.838;2023-03-03T14:33:15;8.10;99.90
21306;DHT22;10812;51.838;5.838;2023-03-03T14:35:49;8.00;99.90
21306;DHT22;10812;51.838;5.838;2023-03-03T14:38:20;8.00;99.90
21306;DHT22;10812;51.838;5.838;2023-03-03T14:41:03;8.10;99.90
21306;DHT22;10812;51.838;5.838;2023-03-03T14:43:39;8.00;99.90
21306;DHT22;10812;51.838;5.838;2023-03-03T14:46:35;7.90;99.90
21306;DHT22;10812;51.838;5.838;2023-03-03T14:49:05;7.80;99.90
21306;DHT22;10812;51.838;5.838;2023-03-03T14:51:41;8.10;99.90
21306;DHT22;10812;51.838;5.838;2023-03-03T14:54:24;8.40;99.90
21306;DHT22;10812;51.838;5.838;2023-03-03T14:56:59;8.60;99.90
21306;DHT22;10812;51.838;5.838;2023-03-03T14:59:30;8.70;99.90
21306;DHT22;10812;51.838;5.838;2023-03-03T15:02:27;8.80;99.90
21306;DHT22;10812;51.838;5.838;2023-03-03T15:05:15;8.90;99.90
21306;DHT22;10812;51.838;5.838;2023-03-03T15:07:45;8.90;99.90
21306;DHT22;10812;51.838;5.838;2023-03-03T15:10:29;8.80;99.90
21306;DHT22;10812;51.838;5.838;2023-03-03T15:13:09;8.70;99.90
21306;DHT22;10812;51.838;5.838;2023-03-03T15:15:50;8.70;99.90
21306;DHT22;10812;51.838;5.838;2023-03-03T15:18:19;8.80;99.90
21306;DHT22;10812;51.838;5.838;2023-03-03T15:20:59;8.90;99.90
21306;DHT22;10812;51.838;5.838;2023-03-03T15:23:47;8.80;99.90
21306;DHT22;10812;51.838;5.838;2023-03-03T15:26:22;8.80;99.90
21306;DHT22;10812;51.838;5.838;2023-03-03T15:28:58;8.80;99.90
21306;DHT22;10812;51.838;5.838;2023-03-03T15:31:41;8.70;99.90
21306;DHT22;10812;51.838;5.838;2023-03-03T15:34:23;8.60;99.90
21306;DHT22;10812;51.838;5.838;2023-03-03T15:37:01;8.50;99.90
21306;DHT22;10812;51.838;5.838;2023-03-03T15:39:41;8.60;99.90
21306;DHT22;10812;51.838;5.838;2023-03-03T15:42:13;8.60;99.90
21306;DHT22;10812;51.838;5.838;2023-03-03T15:44:53;8.50;99.90
21306;DHT22;10812;51.838;5.838;2023-03-03T15:47:44;8.40;99.90
21306;DHT22;10812;51.838;5.838;2023-03-03T15:50:28;8.30;99.90
21306;DHT22;10812;51.838;5.838;2023-03-03T15:53:12;8.10;99.90
21306;DHT22;10812;51.838;5.838;2023-03-03T15:55:50;8.10;99.90
21306;DHT22;10812;51.838;5.838;2023-03-03T16:01:24;8.00;99.90
21306;DHT22;10812;51.838;5.838;2023-03-03T16:03:57;8.00;99.90
21306;DHT22;10812;51.838;5.838;2023-03-03T16:06:37;8.00;99.90
21306;DHT22;10812;51.838;5.838;2023-03-03T16:09:17;7.90;99.90
21306;DHT22;10812;51.838;5.838;2023-03-03T16:11:53;7.90;99.90
21306;DHT22;10812;51.838;5.838;2023-03-03T16:17:38;7.80;99.90
21306;DHT22;10812;51.838;5.838;2023-03-03T16:20:18;7.70;99.90
21306;DHT22;10812;51.838;5.838;2023-03-03T16:26:03;7.50;99.90
21306;DHT22;10812;51.838;5.838;2023-03-03T16:28:40;7.30;99.90
21306;DHT22;10812;51.838;5.838;2023-03-03T16:31:16;7.20;99.90
21306;DHT22;10812;51.838;5.838;2023-03-03T16:33:51;7.20;99.90
21306;DHT22;10812;51.838;5.838;2023-03-03T16:36:31;7.10;99.90
21306;DHT22;10812;51.838;5.838;2023-03-03T16:39:05;7.00;99.90
21306;DHT22;10812;51.838;5.838;2023-03-03T16:41:45;7.00;99.90
21306;DHT22;10812;51.838;5.838;2023-03-03T16:44:25;6.90;99.90
21306;DHT22;10812;51.838;5.838;2023-03-03T16:47:06;6.90;99.90
21306;DHT22;10812;51.838;5.838;2023-03-03T16:49:47;6.80;99.90
21306;DHT22;10812;51.838;5.838;2023-03-03T16:52:26;6.80;99.90
21306;DHT22;10812;51.838;5.838;2023-03-03T16:54:59;6.70;99.90
21306;DHT22;10812;51.838;5.838;2023-03-03T16:57:37;6.60;99.90
21306;DHT22;10812;51.838;5.838;2023-03-03T17:00:12;6.60;99.90
21306;DHT22;10812;51.838;5.838;2023-03-03T17:03:23;6.50;99.90
21306;DHT22;10812;51.838;5.838;2023-03-03T17:06:04;6.40;99.90
21306;DHT22;10812;51.838;5.838;2023-03-03T17:08:46;6.30;99.90
21306;DHT22;10812;51.838;5.838;2023-03-03T17:11:25;6.30;99.90
21306;DHT22;10812;51.838;5.838;2023-03-03T17:14:04;6.20;99.90
21306;DHT22;10812;51.838;5.838;2023-03-03T17:16:38;6.10;99.90
21306;DHT22;10812;51.838;5.838;2023-03-03T17:19:28;6.00;99.90
21306;DHT22;10812;51.838;5.838;2023-03-03T17:22:10;6.00;99.90
21306;DHT22;10812;51.838;5.838;2023-03-03T17:24:49;5.90;99.90